sensor_id;sensor_type;location;lat;lon;timestamp;temperature;humidity
35647;DHT22;28680;45.642;13.756;2023-11-18T00:01:02;11.00;99.90
35647;DHT22;28680;45.642;13.756;2023-11-18T00:06:57;11.00;99.90
35647;DHT22;28680;45.642;13.756;2023-11-18T00:16:03;11.10;99.90
35647;DHT22;28680;45.642;13.756;2023-11-18T00:18:29;11.00;99.90
35647;DHT22;28680;45.642;13.756;2023-11-18T00:20:57;11.00;99.90
35647;DHT22;28680;45.642;13.756;2023-11-18T00:28:33;11.00;99.90
35647;DHT22;28680;45.642;13.756;2023-11-18T00:34:21;11.10;99.90
35647;DHT22;28680;45.642;13.756;2023-11-18T00:42:57;11.20;99.90
35647;DHT22;28680;45.642;13.756;2023-11-18T00:45:23;11.20;99.90
35647;DHT22;28680;45.642;13.756;2023-11-18T00:47:48;11.30;99.90
35647;DHT22;28680;45.642;13.756;2023-11-18T00:50:14;11.40;99.90
35647;DHT22;28680;45.642;13.756;2023-11-18T00:52:40;11.50;99.90
35647;DHT22;28680;45.642;13.756;2023-11-18T00:55:07;11.40;99.90
35647;DHT22;28680;45.642;13.756;2023-11-18T01:08:24;11.10;99.90
35647;DHT22;28680;45.642;13.756;2023-11-18T01:10:50;11.00;99.90
35647;DHT22;28680;45.642;13.756;2023-11-18T01:13:16;10.90;99.90
35647;DHT22;28680;45.642;13.756;2023-11-18T01:16:07;10.80;99.90
35647;DHT22;28680;45.642;13.756;2023-11-18T01:18:34;10.80;99.90
35647;DHT22;28680;45.642;13.756;2023-11-18T01:21:00;10.80;99.90
35647;DHT22;28680;45.642;13.756;2023-11-18T01:23:26;10.80;99.90
35647;DHT22;28680;45.642;13.756;2023-11-18T01:25:51;10.80;99.90
35647;DHT22;28680;45.642;13.756;2023-11-18T01:28:17;10.80;99.90
35647;DHT22;28680;45.642;13.756;2023-11-18T01:30:43;10.70;99.90
35647;DHT22;28680;45.642;13.756;2023-11-18T01:33:10;10.70;99.90
35647;DHT22;28680;45.642;13.756;2023-11-18T01:35:36;10.70;99.90
35647;DHT22;28680;45.642;13.756;2023-11-18T01:38:02;10.70;99.90
35647;DHT22;28680;45.642;13.756;2023-11-18T01:40:30;10.70;99.90
35647;DHT22;28680;45.642;13.756;2023-11-18T01:42:56;10.70;99.90
35647;DHT22;28680;45.642;13.756;2023-11-18T01:45:22;10.60;99.90
35647;DHT22;28680;45.642;13.756;2023-11-18T01:47:57;10.70;99.90
35647;DHT22;28680;45.642;13.756;2023-11-18T01:50:22;10.70;99.90
35647;DHT22;28680;45.642;13.756;2023-11-18T01:52:48;10.70;99.90
35647;DHT22;28680;45.642;13.756;2023-11-18T01:55:14;10.70;99.90
35647;DHT22;28680;45.642;13.756;2023-11-18T01:57:39;10.70;99.90
35647;DHT22;28680;45.642;13.756;2023-11-18T02:00:09;10.60;99.90
35647;DHT22;28680;45.642;13.756;2023-11-18T02:02:38;10.50;99.90
35647;DHT22;28680;45.642;13.756;2023-11-18T02:05:05;10.50;99.90
35647;DHT22;28680;45.642;13.756;2023-11-18T02:21:49;10.60;99.90
35647;DHT22;28680;45.642;13.756;2023-11-18T02:24:25;10.30;99.90
35647;DHT22;28680;45.642;13.756;2023-11-18T02:36:20;9.90;99.90
35647;DHT22;28680;45.642;13.756;2023-11-18T02:38:49;10.00;99.90
35647;DHT22;28680;45.642;13.756;2023-11-18T02:41:16;10.20;99.90
35647;DHT22;28680;45.642;13.756;2023-11-18T02:46:25;10.40;99.90
35647;DHT22;28680;45.642;13.756;2023-11-18T02:48:53;10.40;99.90
35647;DHT22;28680;45.642;13.756;2023-11-18T02:51:20;10.30;99.90
35647;DHT22;28680;45.642;13.756;2023-11-18T02:53:52;10.20;99.90
35647;DHT22;28680;45.642;13.756;2023-11-18T03:06:08;9.70;99.90
35647;DHT22;28680;45.642;13.756;2023-11-18T03:16:42;9.60;99.90
35647;DHT22;28680;45.642;13.756;2023-11-18T03:19:08;9.70;99.90
35647;DHT22;28680;45.642;13.756;2023-11-18T03:21:34;9.70;99.90
35647;DHT22;28680;45.642;13.756;2023-11-18T03:23:59;9.70;99.90
35647;DHT22;28680;45.642;13.756;2023-11-18T03:26:25;9.80;99.90
35647;DHT22;28680;45.642;13.756;2023-11-18T03:33:59;9.60;99.90
35647;DHT22;28680;45.642;13.756;2023-11-18T03:42:14;9.50;99.90
35647;DHT22;28680;45.642;13.756;2023-11-18T03:44:47;9.40;99.90
35647;DHT22;28680;45.642;13.756;2023-11-18T03:53:43;9.30;99.90
35647;DHT22;28680;45.642;13.756;2023-11-18T04:02:41;9.30;99.90
35647;DHT22;28680;45.642;13.756;2023-11-18T04:05:07;9.40;99.90
35647;DHT22;28680;45.642;13.756;2023-11-18T04:07:34;9.50;99.90
35647;DHT22;28680;45.642;13.756;2023-11-18T04:09:59;9.50;99.90
35647;DHT22;28680;45.642;13.756;2023-11-18T04:12:25;9.50;99.90
35647;DHT22;28680;45.642;13.756;2023-11-18T04:14:52;9.40;99.90
35647;DHT22;28680;45.642;13.756;2023-11-18T04:17:18;9.40;99.90
35647;DHT22;28680;45.642;13.756;2023-11-18T04:19:45;9.30;99.90
35647;DHT22;28680;45.642;13.756;2023-11-18T04:22:12;9.30;99.90
35647;DHT22;28680;45.642;13.756;2023-11-18T04:24:38;9.30;99.90
35647;DHT22;28680;45.642;13.756;2023-11-18T04:40:24;9.10;99.90
35647;DHT22;28680;45.642;13.756;2023-11-18T04:42:51;8.90;99.90
35647;DHT22;28680;45.642;13.756;2023-11-18T04:45:20;8.90;99.90
35647;DHT22;28680;45.642;13.756;2023-11-18T04:48:30;8.90;99.90
35647;DHT22;28680;45.642;13.756;2023-11-18T04:51:02;8.90;99.90
35647;DHT22;28680;45.642;13.756;2023-11-18T04:53:27;8.90;99.90
35647;DHT22;28680;45.642;13.756;2023-11-18T05:01:32;8.90;99.90
35647;DHT22;28680;45.642;13.756;2023-11-18T05:03:58;8.90;99.90
35647;DHT22;28680;45.642;13.756;2023-11-18T05:14:30;9.20;99.90
35647;DHT22;28680;45.642;13.756;2023-11-18T05:20:50;9.10;99.90
35647;DHT22;28680;45.642;13.756;2023-11-18T05:23:16;9.00;99.90
35647;DHT22;28680;45.642;13.756;2023-11-18T05:25:42;9.00;99.90
35647;DHT22;28680;45.642;13.756;2023-11-18T05:31:32;9.00;99.90
35647;DHT22;28680;45.642;13.756;2023-11-18T05:34:52;9.10;99.90
35647;DHT22;28680;45.642;13.756;2023-11-18T05:40:34;8.90;99.90
35647;DHT22;28680;45.642;13.756;2023-11-18T05:43:29;9.00;99.90
35647;DHT22;28680;45.642;13.756;2023-11-18T05:52:49;8.70;99.90
35647;DHT22;28680;45.642;13.756;2023-11-18T05:58:12;9.00;99.90
35647;DHT22;28680;45.642;13.756;2023-11-18T06:00:54;9.00;99.90
35647;DHT22;28680;45.642;13.756;2023-11-18T06:03:20;9.00;99.90
35647;DHT22;28680;45.642;13.756;2023-11-18T06:05:45;8.90;99.90
35647;DHT22;28680;45.642;13.756;2023-11-18T06:08:12;8.90;99.90
35647;DHT22;28680;45.642;13.756;2023-11-18T06:10:38;8.80;99.90
35647;DHT22;28680;45.642;13.756;2023-11-18T06:13:07;8.80;99.90
35647;DHT22;28680;45.642;13.756;2023-11-18T06:15:34;8.80;99.90
35647;DHT22;28680;45.642;13.756;2023-11-18T06:26:51;8.70;99.90
35647;DHT22;28680;45.642;13.756;2023-11-18T06:32:31;8.60;99.90
35647;DHT22;28680;45.642;13.756;2023-11-18T06:34:57;8.70;99.90
35647;DHT22;28680;45.642;13.756;2023-11-18T06:37:23;8.70;99.90
35647;DHT22;28680;45.642;13.756;2023-11-18T06:39:49;8.80;99.90
35647;DHT22;28680;45.642;13.756;2023-11-18T06:42:19;8.80;99.90
35647;DHT22;28680;45.642;13.756;2023-11-18T06:53:20;8.80;99.90
35647;DHT22;28680;45.642;13.756;2023-11-18T06:55:46;8.80;99.90
35647;DHT22;28680;45.642;13.756;2023-11-18T06:58:23;8.90;99.90
35647;DHT22;28680;45.642;13.756;2023-11-18T07:00:48;8.90;99.90
35647;DHT22;28680;45.642;13.756;2023-11-18T07:06:33;9.00;99.90
35647;DHT22;28680;45.642;13.756;2023-11-18T07:40:32;11.50;99.90
35647;DHT22;28680;45.642;13.756;2023-11-18T07:42:59;11.80;99.90
35647;DHT22;28680;45.642;13.756;2023-11-18T07:45:27;12.10;99.90
35647;DHT22;28680;45.642;13.756;2023-11-18T07:47:54;12.20;99.90
35647;DHT22;28680;45.642;13.756;2023-11-18T07:50:20;12.50;99.90
35647;DHT22;28680;45.642;13.756;2023-11-18T07:52:47;12.90;99.90
35647;DHT22;28680;45.642;13.756;2023-11-18T07:55:14;13.10;99.90
35647;DHT22;28680;45.642;13.756;2023-11-18T07:57:40;13.50;99.90
35647;DHT22;28680;45.642;13.756;2023-11-18T08:00:06;13.90;99.90
35647;DHT22;28680;45.642;13.756;2023-11-18T08:02:39;14.20;99.90
35647;DHT22;28680;45.642;13.756;2023-11-18T08:05:05;14.60;99.90
35647;DHT22;28680;45.642;13.756;2023-11-18T08:11:12;15.00;99.90
35647;DHT22;28680;45.642;13.756;2023-11-18T08:27:28;17.50;99.90
35647;DHT22;28680;45.642;13.756;2023-11-18T08:52:39;20.00;99.90
35647;DHT22;28680;45.642;13.756;2023-11-18T09:08:35;20.90;99.90
35647;DHT22;28680;45.642;13.756;2023-11-18T09:11:02;21.60;99.90
35647;DHT22;28680;45.642;13.756;2023-11-18T09:30:18;23.60;99.90
35647;DHT22;28680;45.642;13.756;2023-11-18T09:32:44;23.70;99.90
35647;DHT22;28680;45.642;13.756;2023-11-18T09:35:15;23.90;99.90
35647;DHT22;28680;45.642;13.756;2023-11-18T09:37:45;24.10;99.90
35647;DHT22;28680;45.642;13.756;2023-11-18T09:40:15;24.10;99.90
35647;DHT22;28680;45.642;13.756;2023-11-18T09:42:42;23.90;99.90
35647;DHT22;28680;45.642;13.756;2023-11-18T09:45:09;24.00;99.90
35647;DHT22;28680;45.642;13.756;2023-11-18T09:47:45;24.50;99.90
35647;DHT22;28680;45.642;13.756;2023-11-18T09:50:20;24.60;99.90
35647;DHT22;28680;45.642;13.756;2023-11-18T09:52:49;24.70;99.90
35647;DHT22;28680;45.642;13.756;2023-11-18T09:55:32;25.00;99.90
35647;DHT22;28680;45.642;13.756;2023-11-18T09:58:24;25.10;99.90
35647;DHT22;28680;45.642;13.756;2023-11-18T10:07:26;25.00;99.90
35647;DHT22;28680;45.642;13.756;2023-11-18T10:10:22;24.90;99.90
35647;DHT22;28680;45.642;13.756;2023-11-18T10:27:00;22.60;99.90
35647;DHT22;28680;45.642;13.756;2023-11-18T10:29:26;22.30;99.90
35647;DHT22;28680;45.642;13.756;2023-11-18T10:32:05;22.10;99.90
35647;DHT22;28680;45.642;13.756;2023-11-18T10:34:35;22.00;99.90
35647;DHT22;28680;45.642;13.756;2023-11-18T10:37:06;22.00;99.90
35647;DHT22;28680;45.642;13.756;2023-11-18T10:39:36;22.10;99.90
35647;DHT22;28680;45.642;13.756;2023-11-18T10:42:02;22.10;99.90
35647;DHT22;28680;45.642;13.756;2023-11-18T10:44:28;22.00;99.90
35647;DHT22;28680;45.642;13.756;2023-11-18T10:46:57;21.90;99.90
35647;DHT22;28680;45.642;13.756;2023-11-18T10:49:24;21.80;99.90
35647;DHT22;28680;45.642;13.756;2023-11-18T10:51:58;21.60;99.90
35647;DHT22;28680;45.642;13.756;2023-11-18T11:12:09;21.60;99.90
35647;DHT22;28680;45.642;13.756;2023-11-18T11:14:57;22.10;99.90
35647;DHT22;28680;45.642;13.756;2023-11-18T11:17:25;22.60;99.90
35647;DHT22;28680;45.642;13.756;2023-11-18T11:19:59;23.50;99.90
35647;DHT22;28680;45.642;13.756;2023-11-18T11:22:48;23.40;99.90
35647;DHT22;28680;45.642;13.756;2023-11-18T11:25:22;23.50;99.90
35647;DHT22;28680;45.642;13.756;2023-11-18T11:27:55;23.90;99.90
35647;DHT22;28680;45.642;13.756;2023-11-18T11:30:33;24.50;99.90
35647;DHT22;28680;45.642;13.756;2023-11-18T11:33:12;25.00;99.90
35647;DHT22;28680;45.642;13.756;2023-11-18T11:35:43;24.60;99.90
35647;DHT22;28680;45.642;13.756;2023-11-18T11:38:12;24.80;99.90
35647;DHT22;28680;45.642;13.756;2023-11-18T11:40:39;24.90;99.90
35647;DHT22;28680;45.642;13.756;2023-11-18T11:43:07;24.40;99.90
35647;DHT22;28680;45.642;13.756;2023-11-18T11:45:36;24.30;99.90
35647;DHT22;28680;45.642;13.756;2023-11-18T11:48:02;24.10;99.90
35647;DHT22;28680;45.642;13.756;2023-11-18T11:53:39;24.20;99.10
35647;DHT22;28680;45.642;13.756;2023-11-18T11:56:11;24.60;99.90
35647;DHT22;28680;45.642;13.756;2023-11-18T11:58:40;24.60;99.90
35647;DHT22;28680;45.642;13.756;2023-11-18T12:01:22;24.30;99.90
35647;DHT22;28680;45.642;13.756;2023-11-18T12:03:51;23.90;99.60
35647;DHT22;28680;45.642;13.756;2023-11-18T12:06:23;23.30;99.90
35647;DHT22;28680;45.642;13.756;2023-11-18T12:08:52;23.10;99.90
35647;DHT22;28680;45.642;13.756;2023-11-18T12:11:19;22.80;99.90
35647;DHT22;28680;45.642;13.756;2023-11-18T12:17:00;22.40;99.90
35647;DHT22;28680;45.642;13.756;2023-11-18T12:19:33;22.30;99.90
35647;DHT22;28680;45.642;13.756;2023-11-18T12:22:10;22.90;99.90
35647;DHT22;28680;45.642;13.756;2023-11-18T12:24:47;23.30;99.90
35647;DHT22;28680;45.642;13.756;2023-11-18T12:41:03;24.80;99.90
35647;DHT22;28680;45.642;13.756;2023-11-18T12:43:48;24.50;99.90
35647;DHT22;28680;45.642;13.756;2023-11-18T12:48:44;25.20;99.90
35647;DHT22;28680;45.642;13.756;2023-11-18T12:51:12;25.60;99.90
35647;DHT22;28680;45.642;13.756;2023-11-18T12:53:48;25.90;99.50
35647;DHT22;28680;45.642;13.756;2023-11-18T12:56:22;26.30;99.90
35647;DHT22;28680;45.642;13.756;2023-11-18T12:58:50;26.60;99.40
35647;DHT22;28680;45.642;13.756;2023-11-18T13:01:16;26.50;99.30
35647;DHT22;28680;45.642;13.756;2023-11-18T13:03:42;26.10;99.40
35647;DHT22;28680;45.642;13.756;2023-11-18T13:06:11;25.90;99.50
35647;DHT22;28680;45.642;13.756;2023-11-18T13:08:43;25.80;99.90
35647;DHT22;28680;45.642;13.756;2023-11-18T13:11:08;25.60;99.60
35647;DHT22;28680;45.642;13.756;2023-11-18T13:13:41;25.30;99.90
35647;DHT22;28680;45.642;13.756;2023-11-18T13:16:07;25.00;99.90
35647;DHT22;28680;45.642;13.756;2023-11-18T13:18:42;24.60;99.90
35647;DHT22;28680;45.642;13.756;2023-11-18T13:21:13;24.30;99.90
35647;DHT22;28680;45.642;13.756;2023-11-18T13:23:38;23.90;99.90
35647;DHT22;28680;45.642;13.756;2023-11-18T13:26:04;23.70;99.90
35647;DHT22;28680;45.642;13.756;2023-11-18T13:28:31;23.50;99.90
35647;DHT22;28680;45.642;13.756;2023-11-18T13:30:57;23.10;99.90
35647;DHT22;28680;45.642;13.756;2023-11-18T13:33:23;23.00;99.90
35647;DHT22;28680;45.642;13.756;2023-11-18T13:35:49;22.50;99.90
35647;DHT22;28680;45.642;13.756;2023-11-18T13:38:14;22.30;99.90
35647;DHT22;28680;45.642;13.756;2023-11-18T13:40:44;22.00;99.90
35647;DHT22;28680;45.642;13.756;2023-11-18T13:43:09;21.50;99.90
35647;DHT22;28680;45.642;13.756;2023-11-18T13:45:35;21.30;99.90
35647;DHT22;28680;45.642;13.756;2023-11-18T13:48:01;21.10;99.90
35647;DHT22;28680;45.642;13.756;2023-11-18T13:50:27;20.70;99.90
35647;DHT22;28680;45.642;13.756;2023-11-18T13:52:54;20.50;99.90
35647;DHT22;28680;45.642;13.756;2023-11-18T13:55:21;20.30;99.90
35647;DHT22;28680;45.642;13.756;2023-11-18T13:57:53;20.20;99.90
35647;DHT22;28680;45.642;13.756;2023-11-18T14:00:29;20.00;99.90
35647;DHT22;28680;45.642;13.756;2023-11-18T14:02:55;19.80;99.90
35647;DHT22;28680;45.642;13.756;2023-11-18T14:05:22;19.60;99.90
35647;DHT22;28680;45.642;13.756;2023-11-18T14:10:43;19.30;99.90
35647;DHT22;28680;45.642;13.756;2023-11-18T14:13:08;19.20;99.90
35647;DHT22;28680;45.642;13.756;2023-11-18T14:15:38;19.20;99.90
35647;DHT22;28680;45.642;13.756;2023-11-18T14:18:04;19.20;99.90
35647;DHT22;28680;45.642;13.756;2023-11-18T14:20:30;19.00;99.90
35647;DHT22;28680;45.642;13.756;2023-11-18T14:22:57;19.00;99.90
35647;DHT22;28680;45.642;13.756;2023-11-18T14:25:23;18.90;99.90
35647;DHT22;28680;45.642;13.756;2023-11-18T14:27:50;19.00;99.90
35647;DHT22;28680;45.642;13.756;2023-11-18T14:30:16;19.00;99.90
35647;DHT22;28680;45.642;13.756;2023-11-18T14:32:42;19.30;99.90
35647;DHT22;28680;45.642;13.756;2023-11-18T14:38:37;21.00;99.90
35647;DHT22;28680;45.642;13.756;2023-11-18T14:41:03;21.20;99.90
35647;DHT22;28680;45.642;13.756;2023-11-18T14:43:30;20.90;99.90
35647;DHT22;28680;45.642;13.756;2023-11-18T14:45:55;20.30;99.90
35647;DHT22;28680;45.642;13.756;2023-11-18T14:48:21;19.60;99.90
35647;DHT22;28680;45.642;13.756;2023-11-18T14:50:47;19.10;99.90
35647;DHT22;28680;45.642;13.756;2023-11-18T14:53:13;18.60;99.90
35647;DHT22;28680;45.642;13.756;2023-11-18T14:55:43;18.20;99.90
35647;DHT22;28680;45.642;13.756;2023-11-18T14:58:09;18.00;99.90
35647;DHT22;28680;45.642;13.756;2023-11-18T15:00:37;17.90;99.90
35647;DHT22;28680;45.642;13.756;2023-11-18T15:03:03;18.50;99.90
35647;DHT22;28680;45.642;13.756;2023-11-18T15:05:41;19.00;99.90
35647;DHT22;28680;45.642;13.756;2023-11-18T15:08:11;19.70;99.90
35647;DHT22;28680;45.642;13.756;2023-11-18T15:10:41;20.00;99.90
35647;DHT22;28680;45.642;13.756;2023-11-18T15:13:52;20.10;99.90
35647;DHT22;28680;45.642;13.756;2023-11-18T15:19:44;18.40;99.90
35647;DHT22;28680;45.642;13.756;2023-11-18T15:22:10;17.80;99.90
35647;DHT22;28680;45.642;13.756;2023-11-18T15:24:35;17.50;99.90
35647;DHT22;28680;45.642;13.756;2023-11-18T15:27:01;17.20;99.90
35647;DHT22;28680;45.642;13.756;2023-11-18T15:29:29;17.10;99.90
35647;DHT22;28680;45.642;13.756;2023-11-18T15:32:03;16.80;99.90
35647;DHT22;28680;45.642;13.756;2023-11-18T15:34:29;16.70;99.90
35647;DHT22;28680;45.642;13.756;2023-11-18T15:36:57;16.60;99.90
35647;DHT22;28680;45.642;13.756;2023-11-18T15:39:28;16.40;99.90
35647;DHT22;28680;45.642;13.756;2023-11-18T15:41:54;16.20;99.90
35647;DHT22;28680;45.642;13.756;2023-11-18T15:52:04;15.80;99.90
35647;DHT22;28680;45.642;13.756;2023-11-18T15:54:33;15.60;99.90
35647;DHT22;28680;45.642;13.756;2023-11-18T16:09:31;15.40;99.90
35647;DHT22;28680;45.642;13.756;2023-11-18T16:11:57;15.40;99.90
35647;DHT22;28680;45.642;13.756;2023-11-18T16:14:23;15.30;99.90
35647;DHT22;28680;45.642;13.756;2023-11-18T16:20:19;15.20;99.90
35647;DHT22;28680;45.642;13.756;2023-11-18T16:22:46;15.00;99.90
35647;DHT22;28680;45.642;13.756;2023-11-18T16:28:36;14.90;99.90
35647;DHT22;28680;45.642;13.756;2023-11-18T16:37:10;14.50;99.90
35647;DHT22;28680;45.642;13.756;2023-11-18T16:39:49;14.50;99.90
35647;DHT22;28680;45.642;13.756;2023-11-18T16:48:15;14.60;99.90
35647;DHT22;28680;45.642;13.756;2023-11-18T16:53:47;14.30;99.90
35647;DHT22;28680;45.642;13.756;2023-11-18T16:56:12;14.20;99.90
35647;DHT22;28680;45.642;13.756;2023-11-18T16:58:38;14.20;99.90
35647;DHT22;28680;45.642;13.756;2023-11-18T17:01:06;14.20;99.90
35647;DHT22;28680;45.642;13.756;2023-11-18T17:03:31;14.20;99.90
35647;DHT22;28680;45.642;13.756;2023-11-18T17:09:25;14.00;99.90
35647;DHT22;28680;45.642;13.756;2023-11-18T17:11:51;13.80;99.90
35647;DHT22;28680;45.642;13.756;2023-11-18T17:17:46;13.70;99.90
35647;DHT22;28680;45.642;13.756;2023-11-18T17:20:13;13.70;99.90
35647;DHT22;28680;45.642;13.756;2023-11-18T17:23:04;13.70;99.90
35647;DHT22;28680;45.642;13.756;2023-11-18T17:25:29;13.60;99.90
35647;DHT22;28680;45.642;13.756;2023-11-18T17:27:55;13.40;99.90
35647;DHT22;28680;45.642;13.756;2023-11-18T17:30:41;13.40;99.90
35647;DHT22;28680;45.642;13.756;2023-11-18T17:33:16;13.20;99.90
35647;DHT22;28680;45.642;13.756;2023-11-18T17:35:42;13.10;99.90
35647;DHT22;28680;45.642;13.756;2023-11-18T17:38:08;13.20;99.90
35647;DHT22;28680;45.642;13.756;2023-11-18T17:40:34;13.10;99.90
35647;DHT22;28680;45.642;13.756;2023-11-18T17:42:59;13.10;99.90
35647;DHT22;28680;45.642;13.756;2023-11-18T17:45:25;13.00;99.90
35647;DHT22;28680;45.642;13.756;2023-11-18T17:47:51;12.90;99.90
35647;DHT22;28680;45.642;13.756;2023-11-18T17:50:17;12.80;99.90
35647;DHT22;28680;45.642;13.756;2023-11-18T17:52:44;12.90;99.90
35647;DHT22;28680;45.642;13.756;2023-11-18T17:55:12;12.80;99.90
35647;DHT22;28680;45.642;13.756;2023-11-18T17:57:38;12.80;99.90
35647;DHT22;28680;45.642;13.756;2023-11-18T18:00:04;12.80;99.90
35647;DHT22;28680;45.642;13.756;2023-11-18T18:02:40;12.80;99.90
35647;DHT22;28680;45.642;13.756;2023-11-18T18:05:07;12.60;99.90
35647;DHT22;28680;45.642;13.756;2023-11-18T18:07:32;12.60;99.90
35647;DHT22;28680;45.642;13.756;2023-11-18T18:09:58;12.60;99.90
35647;DHT22;28680;45.642;13.756;2023-11-18T18:12:24;12.60;99.90
35647;DHT22;28680;45.642;13.756;2023-11-18T18:14:54;12.60;99.90
35647;DHT22;28680;45.642;13.756;2023-11-18T18:17:21;12.60;99.90
35647;DHT22;28680;45.642;13.756;2023-11-18T18:19:46;12.50;99.90
35647;DHT22;28680;45.642;13.756;2023-11-18T18:22:12;12.40;99.90
35647;DHT22;28680;45.642;13.756;2023-11-18T18:24:38;12.40;99.90
35647;DHT22;28680;45.642;13.756;2023-11-18T18:27:04;12.50;99.90
35647;DHT22;28680;45.642;13.756;2023-11-18T18:29:30;12.50;99.90
35647;DHT22;28680;45.642;13.756;2023-11-18T18:31:56;12.50;99.90
35647;DHT22;28680;45.642;13.756;2023-11-18T18:34:21;12.50;99.90
35647;DHT22;28680;45.642;13.756;2023-11-18T18:36:47;12.40;99.90
35647;DHT22;28680;45.642;13.756;2023-11-18T18:39:12;12.40;99.90
35647;DHT22;28680;45.642;13.756;2023-11-18T18:41:39;12.40;99.90
35647;DHT22;28680;45.642;13.756;2023-11-18T18:44:04;12.30;99.90
35647;DHT22;28680;45.642;13.756;2023-11-18T18:46:48;12.20;99.90
35647;DHT22;28680;45.642;13.756;2023-11-18T18:49:17;12.20;99.90
35647;DHT22;28680;45.642;13.756;2023-11-18T19:24:23;11.60;99.90
35647;DHT22;28680;45.642;13.756;2023-11-18T19:27:04;11.60;99.90
35647;DHT22;28680;45.642;13.756;2023-11-18T19:32:54;11.60;99.90
35647;DHT22;28680;45.642;13.756;2023-11-18T19:35:19;11.60;99.90
35647;DHT22;28680;45.642;13.756;2023-11-18T19:37:45;11.60;99.90
35647;DHT22;28680;45.642;13.756;2023-11-18T19:40:14;11.60;99.90
35647;DHT22;28680;45.642;13.756;2023-11-18T19:42:40;11.50;99.90
35647;DHT22;28680;45.642;13.756;2023-11-18T19:45:06;11.50;99.90
35647;DHT22;28680;45.642;13.756;2023-11-18T20:11:06;11.60;99.90
35647;DHT22;28680;45.642;13.756;2023-11-18T20:34:02;11.30;99.90
35647;DHT22;28680;45.642;13.756;2023-11-18T20:50:43;11.20;99.90
35647;DHT22;28680;45.642;13.756;2023-11-18T20:53:17;11.20;99.90
35647;DHT22;28680;45.642;13.756;2023-11-18T21:08:20;11.40;99.90
35647;DHT22;28680;45.642;13.756;2023-11-18T21:10:45;11.50;99.90
35647;DHT22;28680;45.642;13.756;2023-11-18T21:13:12;11.70;99.90
35647;DHT22;28680;45.642;13.756;2023-11-18T21:15:38;11.60;99.90
35647;DHT22;28680;45.642;13.756;2023-11-18T21:18:06;11.50;99.90
35647;DHT22;28680;45.642;13.756;2023-11-18T21:20:36;11.40;99.90
35647;DHT22;28680;45.642;13.756;2023-11-18T21:23:26;11.20;99.90
35647;DHT22;28680;45.642;13.756;2023-11-18T21:25:52;11.40;99.90
35647;DHT22;28680;45.642;13.756;2023-11-18T21:28:18;11.40;99.90
35647;DHT22;28680;45.642;13.756;2023-11-18T21:30:44;11.40;99.90
35647;DHT22;28680;45.642;13.756;2023-11-18T21:33:10;11.40;99.90
35647;DHT22;28680;45.642;13.756;2023-11-18T21:35:35;11.40;99.90
35647;DHT22;28680;45.642;13.756;2023-11-18T21:38:02;11.30;99.90
35647;DHT22;28680;45.642;13.756;2023-11-18T21:40:27;11.30;99.90
35647;DHT22;28680;45.642;13.756;2023-11-18T21:42:54;11.20;99.90
35647;DHT22;28680;45.642;13.756;2023-11-18T21:45:20;11.10;99.90
35647;DHT22;28680;45.642;13.756;2023-11-18T21:47:54;11.00;99.90
35647;DHT22;28680;45.642;13.756;2023-11-18T21:50:21;11.00;99.90
35647;DHT22;28680;45.642;13.756;2023-11-18T21:52:50;11.00;99.90
35647;DHT22;28680;45.642;13.756;2023-11-18T21:55:15;11.00;99.90
35647;DHT22;28680;45.642;13.756;2023-11-18T21:57:41;11.00;99.90
35647;DHT22;28680;45.642;13.756;2023-11-18T22:00:08;11.00;99.90
35647;DHT22;28680;45.642;13.756;2023-11-18T22:02:38;11.00;99.90
35647;DHT22;28680;45.642;13.756;2023-11-18T22:05:12;11.00;99.90
35647;DHT22;28680;45.642;13.756;2023-11-18T22:07:42;11.00;99.90
35647;DHT22;28680;45.642;13.756;2023-11-18T22:10:08;11.00;99.90
35647;DHT22;28680;45.642;13.756;2023-11-18T22:12:42;11.00;99.90
35647;DHT22;28680;45.642;13.756;2023-11-18T22:15:07;11.00;99.90
35647;DHT22;28680;45.642;13.756;2023-11-18T22:17:33;11.00;99.90
35647;DHT22;28680;45.642;13.756;2023-11-18T22:19:59;10.90;99.90
35647;DHT22;28680;45.642;13.756;2023-11-18T22:22:25;10.90;99.90
35647;DHT22;28680;45.642;13.756;2023-11-18T22:24:51;10.80;99.90
35647;DHT22;28680;45.642;13.756;2023-11-18T22:27:17;10.70;99.90
35647;DHT22;28680;45.642;13.756;2023-11-18T22:29:43;10.70;99.90
35647;DHT22;28680;45.642;13.756;2023-11-18T22:32:09;10.70;99.90
35647;DHT22;28680;45.642;13.756;2023-11-18T22:34:36;10.70;99.90
35647;DHT22;28680;45.642;13.756;2023-11-18T22:37:06;10.70;99.90
35647;DHT22;28680;45.642;13.756;2023-11-18T22:39:32;10.70;99.90
35647;DHT22;28680;45.642;13.756;2023-11-18T22:42:04;10.60;99.90
35647;DHT22;28680;45.642;13.756;2023-11-18T22:44:30;10.70;99.90
35647;DHT22;28680;45.642;13.756;2023-11-18T22:46:56;10.70;99.90
35647;DHT22;28680;45.642;13.756;2023-11-18T22:49:28;10.70;99.90
35647;DHT22;28680;45.642;13.756;2023-11-18T22:51:53;10.80;99.90
35647;DHT22;28680;45.642;13.756;2023-11-18T22:54:21;10.80;99.90
35647;DHT22;28680;45.642;13.756;2023-11-18T22:56:48;10.80;99.90
35647;DHT22;28680;45.642;13.756;2023-11-18T22:59:18;10.80;99.90
35647;DHT22;28680;45.642;13.756;2023-11-18T23:01:48;10.90;99.90
35647;DHT22;28680;45.642;13.756;2023-11-18T23:04:14;10.80;99.90
35647;DHT22;28680;45.642;13.756;2023-11-18T23:06:43;10.80;99.90
35647;DHT22;28680;45.642;13.756;2023-11-18T23:09:13;10.80;99.90
35647;DHT22;28680;45.642;13.756;2023-11-18T23:11:39;10.70;99.90
35647;DHT22;28680;45.642;13.756;2023-11-18T23:14:08;10.70;99.90
35647;DHT22;28680;45.642;13.756;2023-11-18T23:16:34;10.70;99.90
35647;DHT22;28680;45.642;13.756;2023-11-18T23:18:59;10.70;99.90
35647;DHT22;28680;45.642;13.756;2023-11-18T23:21:25;10.70;99.90
35647;DHT22;28680;45.642;13.756;2023-11-18T23:23:52;10.70;99.90
35647;DHT22;28680;45.642;13.756;2023-11-18T23:26:18;10.70;99.90
35647;DHT22;28680;45.642;13.756;2023-11-18T23:28:44;10.60;99.90
35647;DHT22;28680;45.642;13.756;2023-11-18T23:31:10;10.50;99.90
35647;DHT22;28680;45.642;13.756;2023-11-18T23:33:37;10.50;99.90
35647;DHT22;28680;45.642;13.756;2023-11-18T23:36:03;10.30;99.90
35647;DHT22;28680;45.642;13.756;2023-11-18T23:38:33;10.30;99.90
35647;DHT22;28680;45.642;13.756;2023-11-18T23:40:59;10.30;99.90
35647;DHT22;28680;45.642;13.756;2023-11-18T23:43:25;10.20;99.90
35647;DHT22;28680;45.642;13.756;2023-11-18T23:46:00;10.20;99.90
35647;DHT22;28680;45.642;13.756;2023-11-18T23:48:32;10.20;99.90
35647;DHT22;28680;45.642;13.756;2023-11-18T23:50:58;10.20;99.90